sensor_id;sensor_type;location;lat;lon;timestamp;pressure;altitude;pressure_sealevel;temperature;humidity
70011;BME280;59543;37.950;-122.338;2023-02-16T00:01:00;102166.75;;;13.97;24.76
70011;BME280;59543;37.950;-122.338;2023-02-16T00:03:27;102176.16;;;13.93;25.42
70011;BME280;59543;37.950;-122.338;2023-02-16T00:05:54;102176.53;;;13.88;24.60
70011;BME280;59543;37.950;-122.338;2023-02-16T00:08:21;102168.34;;;14.00;26.20
70011;BME280;59543;37.950;-122.338;2023-02-16T00:10:47;102181.28;;;13.96;25.72
70011;BME280;59543;37.950;-122.338;2023-02-16T00:13:32;102176.81;;;13.85;25.31
70011;BME280;59543;37.950;-122.338;2023-02-16T00:16:23;102178.19;;;13.80;24.87
70011;BME280;59543;37.950;-122.338;2023-02-16T00:18:50;102176.00;;;13.64;25.02
70011;BME280;59543;37.950;-122.338;2023-02-16T00:21:17;102171.59;;;13.63;25.89
70011;BME280;59543;37.950;-122.338;2023-02-16T00:23:44;102173.41;;;13.62;24.79
70011;BME280;59543;37.950;-122.338;2023-02-16T00:26:21;102175.25;;;13.62;25.66
70011;BME280;59543;37.950;-122.338;2023-02-16T00:28:53;102186.19;;;13.81;25.48
70011;BME280;59543;37.950;-122.338;2023-02-16T00:31:22;102178.53;;;13.65;31.39
70011;BME280;59543;37.950;-122.338;2023-02-16T00:33:52;102171.63;;;13.72;31.95
70011;BME280;59543;37.950;-122.338;2023-02-16T00:36:19;102167.31;;;13.60;32.28
70011;BME280;59543;37.950;-122.338;2023-02-16T00:38:45;102172.28;;;13.65;31.97
70011;BME280;59543;37.950;-122.338;2023-02-16T00:41:19;102173.56;;;13.61;32.63
70011;BME280;59543;37.950;-122.338;2023-02-16T00:44:15;102173.09;;;13.56;32.93
70011;BME280;59543;37.950;-122.338;2023-02-16T00:46:43;102172.72;;;13.60;33.24
70011;BME280;59543;37.950;-122.338;2023-02-16T00:49:20;102173.88;;;13.46;33.35
70011;BME280;59543;37.950;-122.338;2023-02-16T00:51:48;102182.97;;;13.24;33.36
70011;BME280;59543;37.950;-122.338;2023-02-16T00:54:15;102179.06;;;13.17;34.45
70011;BME280;59543;37.950;-122.338;2023-02-16T00:56:41;102174.38;;;13.19;35.39
70011;BME280;59543;37.950;-122.338;2023-02-16T00:59:15;102179.47;;;13.13;35.43
70011;BME280;59543;37.950;-122.338;2023-02-16T01:01:43;102183.00;;;12.92;35.83
70011;BME280;59543;37.950;-122.338;2023-02-16T01:04:15;102171.06;;;12.95;35.86
70011;BME280;59543;37.950;-122.338;2023-02-16T01:06:43;102179.72;;;12.77;36.75
70011;BME280;59543;37.950;-122.338;2023-02-16T01:09:28;102180.28;;;12.60;36.37
70011;BME280;59543;37.950;-122.338;2023-02-16T01:12:18;102178.06;;;12.65;36.38
70011;BME280;59543;37.950;-122.338;2023-02-16T01:14:50;102173.06;;;12.61;37.91
70011;BME280;59543;37.950;-122.338;2023-02-16T01:17:17;102180.44;;;12.47;40.26
70011;BME280;59543;37.950;-122.338;2023-02-16T01:19:43;102178.88;;;12.33;40.54
70011;BME280;59543;37.950;-122.338;2023-02-16T01:22:10;102191.13;;;12.26;40.89
70011;BME280;59543;37.950;-122.338;2023-02-16T01:24:36;102190.88;;;12.29;41.44
70011;BME280;59543;37.950;-122.338;2023-02-16T01:27:02;102199.63;;;12.22;41.74
70011;BME280;59543;37.950;-122.338;2023-02-16T01:29:28;102198.50;;;12.24;40.85
70011;BME280;59543;37.950;-122.338;2023-02-16T01:31:55;102207.72;;;12.10;41.08
70011;BME280;59543;37.950;-122.338;2023-02-16T01:34:21;102202.31;;;11.88;41.73
70011;BME280;59543;37.950;-122.338;2023-02-16T01:36:47;102199.34;;;11.80;41.86
70011;BME280;59543;37.950;-122.338;2023-02-16T01:39:16;102209.38;;;11.66;42.83
70011;BME280;59543;37.950;-122.338;2023-02-16T01:44:47;102201.97;;;11.46;43.42
70011;BME280;59543;37.950;-122.338;2023-02-16T01:50:09;102207.84;;;11.40;47.86
70011;BME280;59543;37.950;-122.338;2023-02-16T01:52:53;102205.13;;;11.29;48.93
70011;BME280;59543;37.950;-122.338;2023-02-16T02:03:25;102230.25;;;10.81;52.16
70011;BME280;59543;37.950;-122.338;2023-02-16T02:06:18;102235.97;;;10.76;53.12
70011;BME280;59543;37.950;-122.338;2023-02-16T02:09:32;102235.94;;;10.65;53.88
70011;BME280;59543;37.950;-122.338;2023-02-16T02:12:16;102241.56;;;10.49;55.24
70011;BME280;59543;37.950;-122.338;2023-02-16T02:14:45;102250.72;;;10.34;56.57
70011;BME280;59543;37.950;-122.338;2023-02-16T02:17:17;102252.56;;;10.34;56.70
70011;BME280;59543;37.950;-122.338;2023-02-16T02:26:09;102253.75;;;10.04;58.76
70011;BME280;59543;37.950;-122.338;2023-02-16T02:31:37;102253.66;;;9.80;57.89
70011;BME280;59543;37.950;-122.338;2023-02-16T02:34:20;102258.47;;;9.62;58.84
70011;BME280;59543;37.950;-122.338;2023-02-16T02:40:04;102266.94;;;9.56;59.63
70011;BME280;59543;37.950;-122.338;2023-02-16T02:42:59;102267.28;;;9.51;59.30
70011;BME280;59543;37.950;-122.338;2023-02-16T02:45:36;102263.47;;;9.41;57.94
70011;BME280;59543;37.950;-122.338;2023-02-16T02:48:08;102259.38;;;9.23;57.46
70011;BME280;59543;37.950;-122.338;2023-02-16T02:53:12;102273.78;;;8.39;57.98
70011;BME280;59543;37.950;-122.338;2023-02-16T02:55:46;102271.28;;;8.07;58.54
70011;BME280;59543;37.950;-122.338;2023-02-16T02:58:33;102270.63;;;8.04;58.28
70011;BME280;59543;37.950;-122.338;2023-02-16T03:01:21;102268.69;;;8.06;58.90
70011;BME280;59543;37.950;-122.338;2023-02-16T03:03:51;102270.03;;;7.98;59.06
70011;BME280;59543;37.950;-122.338;2023-02-16T03:06:25;102269.84;;;8.01;58.49
70011;BME280;59543;37.950;-122.338;2023-02-16T03:08:57;102279.13;;;7.96;58.28
70011;BME280;59543;37.950;-122.338;2023-02-16T03:11:26;102274.78;;;7.65;59.40
70011;BME280;59543;37.950;-122.338;2023-02-16T03:14:48;102268.47;;;7.36;60.35
70011;BME280;59543;37.950;-122.338;2023-02-16T03:17:19;102272.28;;;7.01;61.28
70011;BME280;59543;37.950;-122.338;2023-02-16T03:20:08;102265.31;;;6.83;62.00
70011;BME280;59543;37.950;-122.338;2023-02-16T03:22:55;102275.81;;;6.86;62.43
70011;BME280;59543;37.950;-122.338;2023-02-16T03:25:41;102274.72;;;6.74;62.74
70011;BME280;59543;37.950;-122.338;2023-02-16T03:28:29;102286.69;;;6.67;63.07
70011;BME280;59543;37.950;-122.338;2023-02-16T03:31:19;102285.31;;;6.76;62.66
70011;BME280;59543;37.950;-122.338;2023-02-16T03:33:48;102282.38;;;6.80;62.26
70011;BME280;59543;37.950;-122.338;2023-02-16T03:36:24;102294.88;;;6.80;61.75
70011;BME280;59543;37.950;-122.338;2023-02-16T03:38:53;102297.22;;;6.86;61.37
70011;BME280;59543;37.950;-122.338;2023-02-16T03:41:19;102290.41;;;6.80;61.40
70011;BME280;59543;37.950;-122.338;2023-02-16T03:43:45;102293.06;;;6.49;61.87
70011;BME280;59543;37.950;-122.338;2023-02-16T03:46:11;102302.19;;;6.29;62.69
70011;BME280;59543;37.950;-122.338;2023-02-16T03:48:37;102303.47;;;6.04;64.18
70011;BME280;59543;37.950;-122.338;2023-02-16T03:51:03;102300.53;;;5.93;65.05
70011;BME280;59543;37.950;-122.338;2023-02-16T03:53:30;102302.53;;;6.05;65.72
70011;BME280;59543;37.950;-122.338;2023-02-16T03:55:56;102295.44;;;6.04;65.36
70011;BME280;59543;37.950;-122.338;2023-02-16T03:58:22;102300.19;;;5.99;65.20
70011;BME280;59543;37.950;-122.338;2023-02-16T04:00:50;102302.25;;;5.94;65.34
70011;BME280;59543;37.950;-122.338;2023-02-16T04:03:16;102297.34;;;5.85;65.79
70011;BME280;59543;37.950;-122.338;2023-02-16T04:05:43;102296.91;;;5.94;64.87
70011;BME280;59543;37.950;-122.338;2023-02-16T04:08:10;102292.41;;;5.94;64.53
70011;BME280;59543;37.950;-122.338;2023-02-16T04:10:37;102287.00;;;5.96;64.20
70011;BME280;59543;37.950;-122.338;2023-02-16T04:13:03;102299.22;;;5.83;63.71
70011;BME280;59543;37.950;-122.338;2023-02-16T04:15:30;102301.84;;;5.67;63.81
70011;BME280;59543;37.950;-122.338;2023-02-16T04:17:57;102303.47;;;5.52;64.22
70011;BME280;59543;37.950;-122.338;2023-02-16T04:20:29;102304.00;;;5.41;63.76
70011;BME280;59543;37.950;-122.338;2023-02-16T04:22:56;102303.63;;;5.32;64.18
70011;BME280;59543;37.950;-122.338;2023-02-16T04:25:23;102305.25;;;5.17;64.73
70011;BME280;59543;37.950;-122.338;2023-02-16T04:27:50;102303.97;;;5.07;64.73
70011;BME280;59543;37.950;-122.338;2023-02-16T04:30:19;102303.47;;;4.98;65.03
70011;BME280;59543;37.950;-122.338;2023-02-16T04:32:46;102305.63;;;5.09;65.04
70011;BME280;59543;37.950;-122.338;2023-02-16T04:35:12;102310.31;;;5.04;65.36
70011;BME280;59543;37.950;-122.338;2023-02-16T04:37:38;102312.78;;;5.09;64.58
70011;BME280;59543;37.950;-122.338;2023-02-16T04:40:04;102314.81;;;5.03;64.15
70011;BME280;59543;37.950;-122.338;2023-02-16T04:42:31;102310.97;;;4.90;65.28
70011;BME280;59543;37.950;-122.338;2023-02-16T04:44:57;102310.13;;;4.90;65.04
70011;BME280;59543;37.950;-122.338;2023-02-16T04:47:23;102315.41;;;4.91;64.63
70011;BME280;59543;37.950;-122.338;2023-02-16T04:49:51;102324.84;;;4.79;64.73
70011;BME280;59543;37.950;-122.338;2023-02-16T04:52:17;102326.13;;;4.71;65.30
70011;BME280;59543;37.950;-122.338;2023-02-16T04:54:43;102323.75;;;4.65;64.93
70011;BME280;59543;37.950;-122.338;2023-02-16T04:57:10;102333.91;;;4.56;65.23
70011;BME280;59543;37.950;-122.338;2023-02-16T04:59:36;102338.47;;;4.54;64.99
70011;BME280;59543;37.950;-122.338;2023-02-16T05:02:02;102330.03;;;4.64;64.48
70011;BME280;59543;37.950;-122.338;2023-02-16T05:04:27;102323.38;;;4.53;64.01
70011;BME280;59543;37.950;-122.338;2023-02-16T05:06:53;102330.47;;;4.54;64.51
70011;BME280;59543;37.950;-122.338;2023-02-16T05:09:19;102331.63;;;4.49;63.93
70011;BME280;59543;37.950;-122.338;2023-02-16T05:11:45;102332.63;;;4.46;64.67
70011;BME280;59543;37.950;-122.338;2023-02-16T05:14:30;102337.09;;;4.46;63.57
70011;BME280;59543;37.950;-122.338;2023-02-16T05:17:13;102346.66;;;4.50;63.50
70011;BME280;59543;37.950;-122.338;2023-02-16T05:19:40;102350.47;;;4.63;62.71
70011;BME280;59543;37.950;-122.338;2023-02-16T05:22:06;102346.19;;;4.61;61.88
70011;BME280;59543;37.950;-122.338;2023-02-16T05:24:32;102342.72;;;4.58;61.61
70011;BME280;59543;37.950;-122.338;2023-02-16T05:26:59;102349.19;;;4.53;61.09
70011;BME280;59543;37.950;-122.338;2023-02-16T05:29:25;102350.69;;;4.40;62.10
70011;BME280;59543;37.950;-122.338;2023-02-16T05:31:51;102350.81;;;4.37;61.24
70011;BME280;59543;37.950;-122.338;2023-02-16T05:34:17;102358.28;;;4.28;61.39
70011;BME280;59543;37.950;-122.338;2023-02-16T05:36:42;102358.56;;;4.22;61.37
70011;BME280;59543;37.950;-122.338;2023-02-16T05:39:08;102371.38;;;4.33;61.59
70011;BME280;59543;37.950;-122.338;2023-02-16T05:41:34;102369.25;;;4.41;60.99
70011;BME280;59543;37.950;-122.338;2023-02-16T05:44:01;102371.06;;;4.41;61.42
70011;BME280;59543;37.950;-122.338;2023-02-16T05:46:28;102380.72;;;4.43;61.20
70011;BME280;59543;37.950;-122.338;2023-02-16T05:48:54;102377.00;;;4.27;61.66
70011;BME280;59543;37.950;-122.338;2023-02-16T05:51:20;102384.63;;;4.16;61.78
70011;BME280;59543;37.950;-122.338;2023-02-16T05:53:46;102383.34;;;4.24;62.17
70011;BME280;59543;37.950;-122.338;2023-02-16T05:56:12;102381.16;;;4.13;61.94
70011;BME280;59543;37.950;-122.338;2023-02-16T05:58:38;102381.47;;;3.85;62.83
70011;BME280;59543;37.950;-122.338;2023-02-16T06:01:04;102379.31;;;3.53;63.48
70011;BME280;59543;37.950;-122.338;2023-02-16T06:03:30;102390.19;;;3.47;63.68
70011;BME280;59543;37.950;-122.338;2023-02-16T06:05:58;102376.09;;;3.44;64.44
70011;BME280;59543;37.950;-122.338;2023-02-16T06:08:24;102376.78;;;3.50;64.28
70011;BME280;59543;37.950;-122.338;2023-02-16T06:10:51;102380.91;;;3.35;64.81
70011;BME280;59543;37.950;-122.338;2023-02-16T06:13:17;102367.91;;;3.27;64.98
70011;BME280;59543;37.950;-122.338;2023-02-16T06:15:44;102383.72;;;3.32;65.00
70011;BME280;59543;37.950;-122.338;2023-02-16T06:18:10;102382.34;;;3.43;65.09
70011;BME280;59543;37.950;-122.338;2023-02-16T06:20:36;102375.16;;;3.46;65.21
70011;BME280;59543;37.950;-122.338;2023-02-16T06:23:02;102380.66;;;3.41;65.54
70011;BME280;59543;37.950;-122.338;2023-02-16T06:25:28;102369.94;;;3.42;65.19
70011;BME280;59543;37.950;-122.338;2023-02-16T06:27:54;102369.16;;;3.40;65.18
70011;BME280;59543;37.950;-122.338;2023-02-16T06:30:24;102369.66;;;3.50;65.25
70011;BME280;59543;37.950;-122.338;2023-02-16T06:32:50;102361.59;;;3.52;65.42
70011;BME280;59543;37.950;-122.338;2023-02-16T06:35:15;102369.72;;;3.69;65.37
70011;BME280;59543;37.950;-122.338;2023-02-16T06:37:41;102355.09;;;3.59;64.78
70011;BME280;59543;37.950;-122.338;2023-02-16T06:40:07;102363.13;;;3.57;64.91
70011;BME280;59543;37.950;-122.338;2023-02-16T06:42:39;102354.81;;;3.44;65.52
70011;BME280;59543;37.950;-122.338;2023-02-16T06:45:05;102347.84;;;3.20;66.58
70011;BME280;59543;37.950;-122.338;2023-02-16T06:47:31;102357.78;;;3.15;66.86
70011;BME280;59543;37.950;-122.338;2023-02-16T06:49:57;102353.97;;;3.22;65.88
70011;BME280;59543;37.950;-122.338;2023-02-16T06:52:23;102356.13;;;3.34;65.37
70011;BME280;59543;37.950;-122.338;2023-02-16T06:54:49;102356.16;;;3.33;65.19
70011;BME280;59543;37.950;-122.338;2023-02-16T06:57:15;102357.66;;;3.18;64.81
70011;BME280;59543;37.950;-122.338;2023-02-16T06:59:41;102358.16;;;3.06;65.22
70011;BME280;59543;37.950;-122.338;2023-02-16T07:02:08;102360.75;;;3.07;65.09
70011;BME280;59543;37.950;-122.338;2023-02-16T07:04:34;102350.63;;;3.17;64.74
70011;BME280;59543;37.950;-122.338;2023-02-16T07:07:00;102352.03;;;3.26;65.08
70011;BME280;59543;37.950;-122.338;2023-02-16T07:09:25;102356.25;;;3.31;64.65
70011;BME280;59543;37.950;-122.338;2023-02-16T07:11:51;102356.66;;;3.42;64.40
70011;BME280;59543;37.950;-122.338;2023-02-16T07:14:17;102356.72;;;3.41;65.07
70011;BME280;59543;37.950;-122.338;2023-02-16T07:16:43;102355.56;;;3.26;64.96
70011;BME280;59543;37.950;-122.338;2023-02-16T07:19:09;102356.63;;;3.22;64.86
70011;BME280;59543;37.950;-122.338;2023-02-16T07:21:34;102367.81;;;3.08;65.83
70011;BME280;59543;37.950;-122.338;2023-02-16T07:24:00;102368.41;;;2.93;65.39
70011;BME280;59543;37.950;-122.338;2023-02-16T07:26:26;102379.78;;;2.96;65.56
70011;BME280;59543;37.950;-122.338;2023-02-16T07:28:52;102377.50;;;3.09;65.40
70011;BME280;59543;37.950;-122.338;2023-02-16T07:31:18;102377.88;;;3.00;65.82
70011;BME280;59543;37.950;-122.338;2023-02-16T07:33:44;102385.16;;;2.95;65.76
70011;BME280;59543;37.950;-122.338;2023-02-16T07:36:10;102384.84;;;2.81;66.03
70011;BME280;59543;37.950;-122.338;2023-02-16T07:38:36;102370.81;;;2.77;66.93
70011;BME280;59543;37.950;-122.338;2023-02-16T07:41:03;102378.31;;;2.89;65.38
70011;BME280;59543;37.950;-122.338;2023-02-16T07:43:29;102375.19;;;3.00;65.35
70011;BME280;59543;37.950;-122.338;2023-02-16T07:45:54;102369.28;;;2.93;65.24
70011;BME280;59543;37.950;-122.338;2023-02-16T07:48:20;102358.91;;;2.86;66.05
70011;BME280;59543;37.950;-122.338;2023-02-16T07:50:46;102357.16;;;2.86;66.26
70011;BME280;59543;37.950;-122.338;2023-02-16T07:53:12;102363.84;;;2.73;66.53
70011;BME280;59543;37.950;-122.338;2023-02-16T07:55:42;102356.47;;;2.81;66.29
70011;BME280;59543;37.950;-122.338;2023-02-16T07:58:08;102362.94;;;2.74;67.53
70011;BME280;59543;37.950;-122.338;2023-02-16T08:00:34;102355.53;;;2.59;66.72
70011;BME280;59543;37.950;-122.338;2023-02-16T08:03:00;102359.31;;;2.53;66.48
70011;BME280;59543;37.950;-122.338;2023-02-16T08:05:26;102354.13;;;2.50;66.22
70011;BME280;59543;37.950;-122.338;2023-02-16T08:07:52;102354.91;;;2.52;65.98
70011;BME280;59543;37.950;-122.338;2023-02-16T08:10:17;102354.84;;;2.54;65.52
70011;BME280;59543;37.950;-122.338;2023-02-16T08:12:43;102354.50;;;2.63;64.85
70011;BME280;59543;37.950;-122.338;2023-02-16T08:15:10;102348.34;;;2.62;64.98
70011;BME280;59543;37.950;-122.338;2023-02-16T08:17:36;102345.72;;;2.84;64.05
70011;BME280;59543;37.950;-122.338;2023-02-16T08:20:02;102345.72;;;2.84;64.35
70011;BME280;59543;37.950;-122.338;2023-02-16T08:22:29;102344.38;;;2.72;64.10
70011;BME280;59543;37.950;-122.338;2023-02-16T08:24:55;102345.72;;;2.61;64.29
70011;BME280;59543;37.950;-122.338;2023-02-16T08:27:21;102346.53;;;2.63;63.40
70011;BME280;59543;37.950;-122.338;2023-02-16T08:29:46;102352.56;;;2.44;63.60
70011;BME280;59543;37.950;-122.338;2023-02-16T08:32:12;102349.25;;;2.38;63.63
70011;BME280;59543;37.950;-122.338;2023-02-16T08:34:38;102348.91;;;2.47;63.41
70011;BME280;59543;37.950;-122.338;2023-02-16T08:37:04;102349.03;;;2.44;63.40
70011;BME280;59543;37.950;-122.338;2023-02-16T08:39:31;102351.63;;;2.45;62.76
70011;BME280;59543;37.950;-122.338;2023-02-16T08:41:57;102348.91;;;2.47;62.72
70011;BME280;59543;37.950;-122.338;2023-02-16T08:44:24;102349.91;;;2.44;62.99
70011;BME280;59543;37.950;-122.338;2023-02-16T08:46:50;102353.41;;;2.45;63.21
70011;BME280;59543;37.950;-122.338;2023-02-16T08:49:17;102350.00;;;2.41;63.58
70011;BME280;59543;37.950;-122.338;2023-02-16T08:51:44;102350.75;;;2.45;64.11
70011;BME280;59543;37.950;-122.338;2023-02-16T08:54:15;102353.00;;;2.56;64.14
70011;BME280;59543;37.950;-122.338;2023-02-16T08:56:41;102357.16;;;2.63;64.21
70011;BME280;59543;37.950;-122.338;2023-02-16T08:59:11;102352.56;;;2.68;64.25
70011;BME280;59543;37.950;-122.338;2023-02-16T09:01:37;102356.97;;;2.67;63.69
70011;BME280;59543;37.950;-122.338;2023-02-16T09:04:04;102353.28;;;2.71;64.22
70011;BME280;59543;37.950;-122.338;2023-02-16T09:06:31;102360.56;;;2.66;64.69
70011;BME280;59543;37.950;-122.338;2023-02-16T09:09:00;102358.88;;;2.64;64.48
70011;BME280;59543;37.950;-122.338;2023-02-16T09:11:26;102357.50;;;2.54;64.98
70011;BME280;59543;37.950;-122.338;2023-02-16T09:13:52;102359.81;;;2.39;65.76
70011;BME280;59543;37.950;-122.338;2023-02-16T09:16:19;102357.78;;;2.46;65.30
70011;BME280;59543;37.950;-122.338;2023-02-16T09:18:45;102358.75;;;2.43;65.02
70011;BME280;59543;37.950;-122.338;2023-02-16T09:21:12;102363.44;;;2.37;65.62
70011;BME280;59543;37.950;-122.338;2023-02-16T09:23:40;102358.00;;;2.40;65.89
70011;BME280;59543;37.950;-122.338;2023-02-16T09:26:06;102360.06;;;2.57;65.42
70011;BME280;59543;37.950;-122.338;2023-02-16T09:28:36;102369.50;;;2.64;64.89
70011;BME280;59543;37.950;-122.338;2023-02-16T09:31:13;102364.44;;;2.58;65.53
70011;BME280;59543;37.950;-122.338;2023-02-16T09:33:39;102366.16;;;2.35;66.61
70011;BME280;59543;37.950;-122.338;2023-02-16T09:36:06;102363.06;;;2.22;67.17
70011;BME280;59543;37.950;-122.338;2023-02-16T09:38:33;102375.97;;;2.33;66.82
70011;BME280;59543;37.950;-122.338;2023-02-16T09:41:04;102368.88;;;2.34;67.12
70011;BME280;59543;37.950;-122.338;2023-02-16T09:43:44;102364.75;;;2.25;67.46
70011;BME280;59543;37.950;-122.338;2023-02-16T09:46:14;102368.50;;;2.19;67.26
70011;BME280;59543;37.950;-122.338;2023-02-16T09:48:43;102369.44;;;2.18;67.59
70011;BME280;59543;37.950;-122.338;2023-02-16T09:51:13;102366.66;;;2.21;66.73
70011;BME280;59543;37.950;-122.338;2023-02-16T09:53:39;102363.06;;;2.22;66.10
70011;BME280;59543;37.950;-122.338;2023-02-16T09:56:11;102356.69;;;2.28;66.15
70011;BME280;59543;37.950;-122.338;2023-02-16T09:58:42;102357.50;;;2.30;65.68
70011;BME280;59543;37.950;-122.338;2023-02-16T10:04:19;102347.25;;;2.19;65.25
70011;BME280;59543;37.950;-122.338;2023-02-16T10:07:00;102348.94;;;2.22;64.92
70011;BME280;59543;37.950;-122.338;2023-02-16T10:09:31;102343.75;;;2.19;65.04
70011;BME280;59543;37.950;-122.338;2023-02-16T10:12:08;102353.50;;;2.18;64.61
70011;BME280;59543;37.950;-122.338;2023-02-16T10:14:48;102347.38;;;2.16;64.19
70011;BME280;59543;37.950;-122.338;2023-02-16T10:17:21;102350.94;;;2.15;64.27
70011;BME280;59543;37.950;-122.338;2023-02-16T10:19:59;102346.72;;;2.10;64.48
70011;BME280;59543;37.950;-122.338;2023-02-16T10:22:33;102349.72;;;2.00;64.34
70011;BME280;59543;37.950;-122.338;2023-02-16T10:25:02;102344.28;;;2.03;63.94
70011;BME280;59543;37.950;-122.338;2023-02-16T10:27:40;102345.25;;;2.01;64.17
70011;BME280;59543;37.950;-122.338;2023-02-16T10:30:15;102341.72;;;2.02;64.49
70011;BME280;59543;37.950;-122.338;2023-02-16T10:32:54;102345.22;;;2.02;64.21
70011;BME280;59543;37.950;-122.338;2023-02-16T10:36:06;102338.50;;;1.92;64.03
70011;BME280;59543;37.950;-122.338;2023-02-16T10:40:56;102337.09;;;1.82;65.95
70011;BME280;59543;37.950;-122.338;2023-02-16T10:45:53;102340.94;;;1.73;67.77
70011;BME280;59543;37.950;-122.338;2023-02-16T10:48:21;102339.09;;;1.75;67.84
70011;BME280;59543;37.950;-122.338;2023-02-16T10:53:28;102338.38;;;1.70;67.56
70011;BME280;59543;37.950;-122.338;2023-02-16T10:55:58;102334.16;;;1.65;68.46
70011;BME280;59543;37.950;-122.338;2023-02-16T10:58:25;102336.69;;;1.68;68.26
70011;BME280;59543;37.950;-122.338;2023-02-16T11:00:55;102330.19;;;1.51;69.11
70011;BME280;59543;37.950;-122.338;2023-02-16T11:03:24;102331.78;;;1.57;69.23
70011;BME280;59543;37.950;-122.338;2023-02-16T11:05:51;102332.22;;;1.70;68.80
70011;BME280;59543;37.950;-122.338;2023-02-16T11:08:17;102333.78;;;1.75;69.01
70011;BME280;59543;37.950;-122.338;2023-02-16T11:10:46;102329.56;;;1.70;68.75
70011;BME280;59543;37.950;-122.338;2023-02-16T11:13:32;102322.84;;;1.59;68.79
70011;BME280;59543;37.950;-122.338;2023-02-16T11:16:00;102328.34;;;1.53;69.06
70011;BME280;59543;37.950;-122.338;2023-02-16T11:18:34;102335.72;;;1.45;69.46
70011;BME280;59543;37.950;-122.338;2023-02-16T11:21:01;102337.31;;;1.49;69.17
70011;BME280;59543;37.950;-122.338;2023-02-16T11:28:26;102338.59;;;1.37;68.77
70011;BME280;59543;37.950;-122.338;2023-02-16T11:30:57;102335.44;;;1.26;68.02
70011;BME280;59543;37.950;-122.338;2023-02-16T11:33:24;102338.88;;;1.30;68.10
70011;BME280;59543;37.950;-122.338;2023-02-16T11:35:54;102333.47;;;1.33;67.74
70011;BME280;59543;37.950;-122.338;2023-02-16T11:40:51;102339.16;;;1.47;67.02
70011;BME280;59543;37.950;-122.338;2023-02-16T11:43:18;102343.38;;;1.53;66.44
70011;BME280;59543;37.950;-122.338;2023-02-16T11:45:44;102335.59;;;1.48;65.81
70011;BME280;59543;37.950;-122.338;2023-02-16T11:48:24;102339.25;;;1.44;66.51
70011;BME280;59543;37.950;-122.338;2023-02-16T11:51:01;102334.03;;;1.43;66.25
70011;BME280;59543;37.950;-122.338;2023-02-16T11:53:30;102330.09;;;1.28;67.36
70011;BME280;59543;37.950;-122.338;2023-02-16T11:58:35;102337.09;;;1.02;68.26
70011;BME280;59543;37.950;-122.338;2023-02-16T12:01:07;102335.31;;;1.03;68.36
70011;BME280;59543;37.950;-122.338;2023-02-16T12:03:59;102346.06;;;0.98;69.16
70011;BME280;59543;37.950;-122.338;2023-02-16T12:08:56;102323.41;;;1.16;68.57
70011;BME280;59543;37.950;-122.338;2023-02-16T12:14:02;102317.38;;;1.11;68.97
70011;BME280;59543;37.950;-122.338;2023-02-16T12:21:30;102316.69;;;1.32;67.96
70011;BME280;59543;37.950;-122.338;2023-02-16T12:26:35;102311.63;;;1.25;68.78
70011;BME280;59543;37.950;-122.338;2023-02-16T12:36:42;102302.66;;;1.29;70.24
70011;BME280;59543;37.950;-122.338;2023-02-16T12:39:15;102306.34;;;1.25;71.23
70011;BME280;59543;37.950;-122.338;2023-02-16T12:41:53;102307.06;;;1.30;71.57
70011;BME280;59543;37.950;-122.338;2023-02-16T12:44:30;102309.66;;;1.31;72.07
70011;BME280;59543;37.950;-122.338;2023-02-16T12:47:00;102305.63;;;1.46;71.23
70011;BME280;59543;37.950;-122.338;2023-02-16T12:52:19;102296.34;;;1.33;71.96
70011;BME280;59543;37.950;-122.338;2023-02-16T12:54:49;102304.41;;;1.30;72.12
70011;BME280;59543;37.950;-122.338;2023-02-16T12:57:22;102310.25;;;1.40;72.06
70011;BME280;59543;37.950;-122.338;2023-02-16T12:59:56;102312.50;;;1.52;71.36
70011;BME280;59543;37.950;-122.338;2023-02-16T13:02:46;102320.88;;;1.40;71.71
70011;BME280;59543;37.950;-122.338;2023-02-16T13:05:26;102317.94;;;1.47;71.69
70011;BME280;59543;37.950;-122.338;2023-02-16T13:08:00;102324.47;;;1.37;71.60
70011;BME280;59543;37.950;-122.338;2023-02-16T13:10:35;102318.56;;;1.29;71.98
70011;BME280;59543;37.950;-122.338;2023-02-16T13:13:13;102319.63;;;1.23;72.64
70011;BME280;59543;37.950;-122.338;2023-02-16T13:16:22;102324.78;;;1.28;71.99
70011;BME280;59543;37.950;-122.338;2023-02-16T13:18:30;102328.66;;;1.18;72.56
70011;BME280;59543;37.950;-122.338;2023-02-16T13:20:58;102321.06;;;1.07;73.98
70011;BME280;59543;37.950;-122.338;2023-02-16T13:31:08;102322.53;;;1.16;74.13
70011;BME280;59543;37.950;-122.338;2023-02-16T13:34:00;102328.50;;;1.22;73.53
70011;BME280;59543;37.950;-122.338;2023-02-16T13:36:36;102332.97;;;1.20;74.13
70011;BME280;59543;37.950;-122.338;2023-02-16T13:44:24;102320.44;;;1.52;72.73
70011;BME280;59543;37.950;-122.338;2023-02-16T13:46:52;102324.69;;;1.57;72.66
70011;BME280;59543;37.950;-122.338;2023-02-16T13:51:50;102326.09;;;1.68;71.75
70011;BME280;59543;37.950;-122.338;2023-02-16T13:54:24;102322.75;;;1.63;72.43
70011;BME280;59543;37.950;-122.338;2023-02-16T13:56:52;102323.81;;;1.57;72.75
70011;BME280;59543;37.950;-122.338;2023-02-16T14:01:44;102325.09;;;1.72;72.44
70011;BME280;59543;37.950;-122.338;2023-02-16T14:04:12;102330.63;;;1.89;71.60
70011;BME280;59543;37.950;-122.338;2023-02-16T14:06:39;102325.34;;;2.14;70.80
70011;BME280;59543;37.950;-122.338;2023-02-16T14:14:26;102335.38;;;1.81;71.48
70011;BME280;59543;37.950;-122.338;2023-02-16T14:16:52;102333.06;;;1.70;72.39
70011;BME280;59543;37.950;-122.338;2023-02-16T14:19:23;102328.75;;;1.68;72.67